Time,TemperatureF,DewpointF,PressureIn,WindDirection,WindDirectionDegrees,WindSpeedMPH,WindSpeedGustMPH,Humidity,HourlyPrecipIn,Conditions,Clouds,dailyrainin,SolarRadiationWatts/m^2,SoftwareType,DateUTC
2013-02-18 00:02:00,12.0,7.0,-100.00,WNW,283,5.0,8.0,80,0.00,,,0.00,0.000000,,2013-02-18 05:02:00,
2013-02-18 00:32:00,11.0,5.0,-100.00,West,276,4.0,8.0,77,0.00,,,0.00,0.000000,,2013-02-18 05:32:00,
2013-02-18 00:42:00,11.0,5.0,-100.00,West,276,4.0,8.0,77,0.00,,,0.00,0.000000,,2013-02-18 05:42:00,
2013-02-18 00:52:00,11.0,5.0,-100.00,West,276,4.0,8.0,77,0.00,,,0.00,0.000000,,2013-02-18 05:52:00,
2013-02-18 01:02:00,11.0,5.0,-100.00,West,276,4.0,8.0,77,0.00,,,0.00,0.000000,,2013-02-18 06:02:00,
2013-02-18 02:32:00,11.0,5.0,-100.00,West,267,3.0,5.0,76,-99.99,,,0.00,0.000000,,2013-02-18 07:32:00,
2013-02-18 02:42:00,11.0,5.0,-100.00,West,267,3.0,5.0,76,-99.99,,,0.00,0.000000,,2013-02-18 07:42:00,
2013-02-18 02:52:00,11.0,5.0,-100.00,West,267,3.0,5.0,76,-99.99,,,0.00,0.000000,,2013-02-18 07:52:00,
2013-02-18 03:02:00,11.0,5.0,-100.00,West,267,3.0,5.0,76,-99.99,,,0.00,0.000000,,2013-02-18 08:02:00,
2013-02-18 03:33:00,7.0,2.0,-100.00,West,265,2.0,3.0,80,0.00,,,0.00,0.000000,,2013-02-18 08:33:00,
2013-02-18 03:42:00,7.0,2.0,-100.00,West,265,2.0,3.0,80,0.00,,,0.00,0.000000,,2013-02-18 08:42:00,
2013-02-18 03:52:00,7.0,2.0,-100.00,West,265,2.0,3.0,80,0.00,,,0.00,0.000000,,2013-02-18 08:52:00,
2013-02-18 04:03:00,7.0,2.0,-100.00,West,265,2.0,3.0,80,0.00,,,0.00,0.000000,,2013-02-18 09:03:00,
2013-02-18 04:32:00,5.0,0.0,-100.00,SSW,213,2.0,2.0,81,0.00,,,0.00,0.000000,,2013-02-18 09:32:00,
2013-02-18 04:42:00,5.0,0.0,-100.00,SSW,213,2.0,2.0,81,0.00,,,0.00,0.000000,,2013-02-18 09:42:00,
2013-02-18 04:52:00,5.0,0.0,-100.00,SSW,213,2.0,2.0,81,0.00,,,0.00,0.000000,,2013-02-18 09:52:00,
2013-02-18 05:01:00,5.0,0.0,-100.00,SSW,213,2.0,2.0,81,0.00,,,0.00,0.000000,,2013-02-18 10:01:00,
2013-02-18 05:32:00,4.0,-1.0,-100.00,SSW,198,0.0,0.0,80,0.00,,,0.00,0.000000,,2013-02-18 10:32:00,
2013-02-18 05:42:00,4.0,-1.0,-100.00,SSW,198,0.0,0.0,80,0.00,,,0.00,0.000000,,2013-02-18 10:42:00,
2013-02-18 05:53:00,4.0,-1.0,-100.00,SSW,198,0.0,0.0,80,0.00,,,0.00,0.000000,,2013-02-18 10:53:00,
2013-02-18 06:02:00,4.0,-1.0,-100.00,SSW,198,0.0,0.0,80,0.00,,,0.00,0.000000,,2013-02-18 11:02:00,
2013-02-18 06:33:00,3.0,-2.0,-100.00,ESE,103,0.0,0.0,78,0.00,,,0.00,0.000000,,2013-02-18 11:33:00,
2013-02-18 06:43:00,3.0,-2.0,-100.00,ESE,103,0.0,0.0,78,0.00,,,0.00,0.000000,,2013-02-18 11:43:00,
2013-02-18 06:53:00,3.0,-2.0,-100.00,ESE,103,0.0,0.0,78,0.00,,,0.00,0.000000,,2013-02-18 11:53:00,
2013-02-18 07:02:00,3.0,-2.0,-100.00,ESE,103,0.0,0.0,78,0.00,,,0.00,0.000000,,2013-02-18 12:02:00,
2013-02-18 07:32:00,1.0,-4.0,-100.00,East,100,1.0,2.0,77,0.00,,,0.00,1.000000,,2013-02-18 12:32:00,
2013-02-18 08:33:00,5.0,-1.0,-100.00,SE,129,2.0,2.0,75,0.00,,,-99.99,39.000000,,2013-02-18 13:33:00,
2013-02-18 08:42:00,5.0,-1.0,-100.00,SE,129,2.0,2.0,75,0.00,,,-99.99,39.000000,,2013-02-18 13:42:00,
2013-02-18 08:53:00,5.0,-1.0,-100.00,SE,129,2.0,2.0,75,0.00,,,-99.99,39.000000,,2013-02-18 13:53:00,
2013-02-18 09:02:00,5.0,-1.0,-100.00,SE,129,2.0,2.0,75,0.00,,,-99.99,39.000000,,2013-02-18 14:02:00,
2013-02-18 09:34:00,18.0,8.0,-100.00,SSW,199,3.0,5.0,65,0.00,,,0.00,238.000000,,2013-02-18 14:34:00,
2013-02-18 10:32:00,22.0,5.0,-100.00,SSW,204,5.0,8.0,47,0.00,,,0.00,446.000000,,2013-02-18 15:32:00,
2013-02-18 11:03:00,22.0,5.0,-100.00,SSW,204,5.0,8.0,47,0.00,,,0.00,446.000000,,2013-02-18 16:03:00,
2013-02-18 11:33:00,27.0,7.0,-100.00,SSE,157,5.0,8.0,42,0.00,,,0.00,606.000000,,2013-02-18 16:33:00,
2013-02-18 12:33:00,30.0,7.0,-100.00,South,174,6.0,8.0,37,-99.99,,,0.00,710.000000,,2013-02-18 17:33:00,
2013-02-18 13:33:00,30.0,6.0,-100.00,SSW,207,6.0,9.0,36,0.00,,,0.00,656.000000,,2013-02-18 18:33:00,
2013-02-18 13:43:00,30.0,6.0,-100.00,SSW,207,6.0,9.0,36,0.00,,,0.00,656.000000,,2013-02-18 18:43:00,
2013-02-18 14:03:00,30.0,6.0,-100.00,SSW,207,6.0,9.0,36,0.00,,,0.00,656.000000,,2013-02-18 19:03:00,
2013-02-18 14:34:00,35.0,7.0,-100.00,SSE,153,6.0,12.0,30,0.00,,,0.00,710.000000,,2013-02-18 19:34:00,
2013-02-18 14:43:00,35.0,7.0,-100.00,SSE,153,6.0,12.0,30,0.00,,,0.00,710.000000,,2013-02-18 19:43:00,
2013-02-18 14:53:00,35.0,7.0,-100.00,SSE,153,6.0,12.0,30,0.00,,,0.00,710.000000,,2013-02-18 19:53:00,
2013-02-18 15:03:00,35.0,7.0,-100.00,SSE,153,6.0,12.0,30,0.00,,,0.00,710.000000,,2013-02-18 20:03:00,
2013-02-18 16:33:00,36.0,10.0,-100.00,SSE,163,6.0,9.0,33,-99.99,,,0.00,308.000000,,2013-02-18 21:33:00,
2013-02-18 16:43:00,36.0,10.0,-100.00,SSE,163,6.0,9.0,33,-99.99,,,0.00,308.000000,,2013-02-18 21:43:00,
2013-02-18 16:53:00,36.0,10.0,-100.00,SSE,163,6.0,9.0,33,-99.99,,,0.00,308.000000,,2013-02-18 21:53:00,
2013-02-18 17:03:00,36.0,10.0,-100.00,SSE,163,6.0,9.0,33,-99.99,,,0.00,308.000000,,2013-02-18 22:03:00,
2013-02-18 18:34:00,33.0,11.0,-100.00,SSE,151,5.0,7.0,40,-99.99,,,0.00,24.000000,,2013-02-18 23:34:00,
2013-02-18 18:43:00,33.0,11.0,-100.00,SSE,151,5.0,7.0,40,-99.99,,,0.00,24.000000,,2013-02-18 23:43:00,
2013-02-18 18:54:00,33.0,11.0,-100.00,SSE,151,5.0,7.0,40,-99.99,,,0.00,24.000000,,2013-02-18 23:54:00,
2013-02-18 19:03:00,33.0,11.0,-100.00,SSE,151,5.0,7.0,40,-99.99,,,0.00,24.000000,,2013-02-19 00:03:00,
2013-02-18 19:36:00,32.0,12.0,-100.00,SE,140,4.0,8.0,42,0.00,,,0.00,0.000000,,2013-02-19 00:36:00,
2013-02-18 19:44:00,32.0,12.0,-100.00,SE,140,4.0,8.0,42,0.00,,,0.00,0.000000,,2013-02-19 00:44:00,
2013-02-18 19:55:00,32.0,12.0,-100.00,SE,140,4.0,8.0,42,0.00,,,0.00,0.000000,,2013-02-19 00:55:00,
2013-02-18 20:03:00,32.0,12.0,-100.00,SE,140,4.0,8.0,42,0.00,,,0.00,0.000000,,2013-02-19 01:03:00,
2013-02-18 20:35:00,33.0,13.0,-100.00,SSE,151,5.0,11.0,43,0.00,,,-99.99,0.000000,,2013-02-19 01:35:00,
2013-02-18 20:45:00,33.0,13.0,-100.00,SSE,151,5.0,11.0,43,0.00,,,-99.99,0.000000,,2013-02-19 01:45:00,
2013-02-18 20:57:00,33.0,13.0,-100.00,SSE,151,5.0,11.0,43,0.00,,,-99.99,0.000000,,2013-02-19 01:57:00,
2013-02-18 21:04:00,33.0,13.0,-100.00,SSE,151,5.0,11.0,43,0.00,,,-99.99,0.000000,,2013-02-19 02:04:00,
2013-02-18 21:07:00,34.0,15.0,-100.00,SSE,149,5.0,12.0,46,0.00,,,0.00,0.000000,,2013-02-19 02:07:00,
2013-02-18 21:35:00,34.0,15.0,-100.00,SSE,149,5.0,12.0,46,0.00,,,0.00,0.000000,,2013-02-19 02:35:00,
2013-02-18 21:44:00,34.0,15.0,-100.00,SSE,149,5.0,12.0,46,0.00,,,0.00,0.000000,,2013-02-19 02:44:00,
2013-02-18 21:56:00,34.0,15.0,-100.00,SSE,149,5.0,12.0,46,0.00,,,0.00,0.000000,,2013-02-19 02:56:00,
2013-02-18 22:45:00,33.0,17.0,-100.00,SE,140,4.0,6.0,51,0.00,,,0.00,0.000000,,2013-02-19 03:45:00,
2013-02-18 22:55:00,33.0,17.0,-100.00,SE,140,4.0,6.0,51,0.00,,,0.00,0.000000,,2013-02-19 03:55:00,
2013-02-18 23:03:00,33.0,17.0,-100.00,SE,140,4.0,6.0,51,0.00,,,0.00,0.000000,,2013-02-19 04:03:00,
2013-02-18 23:34:00,32.0,17.0,-100.00,SE,129,4.0,6.0,54,0.00,,,0.00,0.000000,,2013-02-19 04:34:00,
2013-02-18 23:45:00,32.0,17.0,-100.00,SE,129,4.0,6.0,54,0.00,,,0.00,0.000000,,2013-02-19 04:45:00,
2013-02-18 23:56:00,32.0,17.0,-100.00,SE,129,4.0,6.0,54,0.00,,,0.00,0.000000,,2013-02-19 04:56:00,